sensor_id;sensor_type;location;lat;lon;timestamp;temperature;humidity
66608;DHT22;53462;39.616;8.824;2023-02-01T00:00:11;5.60;99.90
66608;DHT22;53462;39.616;8.824;2023-02-01T00:02:37;5.60;99.90
66608;DHT22;53462;39.616;8.824;2023-02-01T00:05:09;5.80;99.90
66608;DHT22;53462;39.616;8.824;2023-02-01T00:07:36;5.80;99.90
66608;DHT22;53462;39.616;8.824;2023-02-01T00:10:06;5.70;99.90
66608;DHT22;53462;39.616;8.824;2023-02-01T00:12:32;5.80;99.90
66608;DHT22;53462;39.616;8.824;2023-02-01T00:14:58;5.90;99.90
66608;DHT22;53462;39.616;8.824;2023-02-01T00:17:24;5.90;99.90
66608;DHT22;53462;39.616;8.824;2023-02-01T00:19:50;6.00;99.90
66608;DHT22;53462;39.616;8.824;2023-02-01T00:22:16;6.00;99.90
66608;DHT22;53462;39.616;8.824;2023-02-01T00:24:42;6.00;99.90
66608;DHT22;53462;39.616;8.824;2023-02-01T00:27:08;5.90;99.90
66608;DHT22;53462;39.616;8.824;2023-02-01T00:29:34;5.80;99.90
66608;DHT22;53462;39.616;8.824;2023-02-01T00:32:00;5.80;99.90
66608;DHT22;53462;39.616;8.824;2023-02-01T00:34:26;5.80;99.90
66608;DHT22;53462;39.616;8.824;2023-02-01T00:36:52;5.80;99.90
66608;DHT22;53462;39.616;8.824;2023-02-01T00:39:18;5.70;99.90
66608;DHT22;53462;39.616;8.824;2023-02-01T00:41:44;5.70;99.90
66608;DHT22;53462;39.616;8.824;2023-02-01T00:44:10;5.70;99.90
66608;DHT22;53462;39.616;8.824;2023-02-01T00:46:36;5.70;99.90
66608;DHT22;53462;39.616;8.824;2023-02-01T00:49:02;5.70;99.90
66608;DHT22;53462;39.616;8.824;2023-02-01T00:51:29;5.60;99.90
66608;DHT22;53462;39.616;8.824;2023-02-01T00:53:56;5.50;99.90
66608;DHT22;53462;39.616;8.824;2023-02-01T00:56:22;5.60;99.90
66608;DHT22;53462;39.616;8.824;2023-02-01T00:58:48;5.60;99.90
66608;DHT22;53462;39.616;8.824;2023-02-01T01:01:20;5.50;99.90
66608;DHT22;53462;39.616;8.824;2023-02-01T01:03:52;5.40;99.90
66608;DHT22;53462;39.616;8.824;2023-02-01T01:06:22;5.30;99.90
66608;DHT22;53462;39.616;8.824;2023-02-01T01:08:54;5.20;99.90
66608;DHT22;53462;39.616;8.824;2023-02-01T01:11:24;5.20;99.90
66608;DHT22;53462;39.616;8.824;2023-02-01T01:13:52;5.10;99.90
66608;DHT22;53462;39.616;8.824;2023-02-01T01:16:19;5.10;99.90
66608;DHT22;53462;39.616;8.824;2023-02-01T01:18:46;5.10;99.90
66608;DHT22;53462;39.616;8.824;2023-02-01T01:21:14;5.10;99.90
66608;DHT22;53462;39.616;8.824;2023-02-01T01:23:40;5.20;99.90
66608;DHT22;53462;39.616;8.824;2023-02-01T01:26:26;5.10;99.90
66608;DHT22;53462;39.616;8.824;2023-02-01T01:28:54;5.00;99.90
66608;DHT22;53462;39.616;8.824;2023-02-01T01:31:20;4.90;99.90
66608;DHT22;53462;39.616;8.824;2023-02-01T01:33:54;4.90;99.90
66608;DHT22;53462;39.616;8.824;2023-02-01T01:36:21;5.00;99.90
66608;DHT22;53462;39.616;8.824;2023-02-01T01:38:48;5.00;99.90
66608;DHT22;53462;39.616;8.824;2023-02-01T01:41:18;5.00;99.90
66608;DHT22;53462;39.616;8.824;2023-02-01T01:46:28;4.90;99.90
66608;DHT22;53462;39.616;8.824;2023-02-01T01:49:06;4.90;99.90
66608;DHT22;53462;39.616;8.824;2023-02-01T01:51:42;4.90;99.90
66608;DHT22;53462;39.616;8.824;2023-02-01T01:54:16;5.00;99.90
66608;DHT22;53462;39.616;8.824;2023-02-01T01:56:44;5.00;99.90
66608;DHT22;53462;39.616;8.824;2023-02-01T01:59:11;5.00;99.90
66608;DHT22;53462;39.616;8.824;2023-02-01T02:01:38;4.90;99.90
66608;DHT22;53462;39.616;8.824;2023-02-01T02:04:04;4.80;99.90
66608;DHT22;53462;39.616;8.824;2023-02-01T02:09:06;4.70;99.90
66608;DHT22;53462;39.616;8.824;2023-02-01T02:11:33;4.80;99.90
66608;DHT22;53462;39.616;8.824;2023-02-01T02:13:59;4.70;99.90
66608;DHT22;53462;39.616;8.824;2023-02-01T02:47:27;4.90;99.90
66608;DHT22;53462;39.616;8.824;2023-02-01T02:53:21;4.90;99.90
66608;DHT22;53462;39.616;8.824;2023-02-01T02:56:10;4.70;99.90
66608;DHT22;53462;39.616;8.824;2023-02-01T02:58:58;4.60;99.90
66608;DHT22;53462;39.616;8.824;2023-02-01T03:01:43;4.50;99.90
66608;DHT22;53462;39.616;8.824;2023-02-01T03:04:28;4.50;99.90
66608;DHT22;53462;39.616;8.824;2023-02-01T03:06:54;4.40;99.90
66608;DHT22;53462;39.616;8.824;2023-02-01T03:09:31;4.40;99.90
66608;DHT22;53462;39.616;8.824;2023-02-01T03:12:03;4.50;99.90
66608;DHT22;53462;39.616;8.824;2023-02-01T03:15:08;4.40;99.90
66608;DHT22;53462;39.616;8.824;2023-02-01T03:17:39;4.40;99.90
66608;DHT22;53462;39.616;8.824;2023-02-01T03:20:08;4.40;99.90
66608;DHT22;53462;39.616;8.824;2023-02-01T03:22:35;4.50;99.90
66608;DHT22;53462;39.616;8.824;2023-02-01T03:25:18;4.60;99.90
66608;DHT22;53462;39.616;8.824;2023-02-01T03:28:07;4.60;99.90
66608;DHT22;53462;39.616;8.824;2023-02-01T03:30:40;4.60;99.90
66608;DHT22;53462;39.616;8.824;2023-02-01T03:33:11;4.50;99.90
66608;DHT22;53462;39.616;8.824;2023-02-01T03:36:05;4.60;99.90
66608;DHT22;53462;39.616;8.824;2023-02-01T03:38:58;4.60;99.90
66608;DHT22;53462;39.616;8.824;2023-02-01T03:41:51;4.60;99.90
66608;DHT22;53462;39.616;8.824;2023-02-01T03:44:29;4.60;99.90
66608;DHT22;53462;39.616;8.824;2023-02-01T03:46:58;4.80;99.90
66608;DHT22;53462;39.616;8.824;2023-02-01T03:49:37;4.90;99.90
66608;DHT22;53462;39.616;8.824;2023-02-01T03:52:09;4.90;99.90
66608;DHT22;53462;39.616;8.824;2023-02-01T03:54:37;4.90;99.90
66608;DHT22;53462;39.616;8.824;2023-02-01T03:57:08;5.10;99.90
66608;DHT22;53462;39.616;8.824;2023-02-01T03:59:39;5.20;99.90
66608;DHT22;53462;39.616;8.824;2023-02-01T04:02:05;5.30;99.90
66608;DHT22;53462;39.616;8.824;2023-02-01T04:04:31;5.40;99.90
66608;DHT22;53462;39.616;8.824;2023-02-01T04:06:58;5.50;99.90
66608;DHT22;53462;39.616;8.824;2023-02-01T04:09:24;5.40;99.90
66608;DHT22;53462;39.616;8.824;2023-02-01T04:11:50;5.50;99.90
66608;DHT22;53462;39.616;8.824;2023-02-01T04:14:16;5.40;99.90
66608;DHT22;53462;39.616;8.824;2023-02-01T04:16:42;5.50;99.90
66608;DHT22;53462;39.616;8.824;2023-02-01T04:19:08;5.50;99.90
66608;DHT22;53462;39.616;8.824;2023-02-01T04:21:34;5.30;99.90
66608;DHT22;53462;39.616;8.824;2023-02-01T04:24:00;5.00;99.90
66608;DHT22;53462;39.616;8.824;2023-02-01T04:26:26;4.80;99.90
66608;DHT22;53462;39.616;8.824;2023-02-01T04:28:52;4.90;99.90
66608;DHT22;53462;39.616;8.824;2023-02-01T04:31:18;4.40;99.90
66608;DHT22;53462;39.616;8.824;2023-02-01T04:33:55;4.10;99.90
66608;DHT22;53462;39.616;8.824;2023-02-01T04:36:23;4.10;99.90
66608;DHT22;53462;39.616;8.824;2023-02-01T04:38:50;4.00;99.90
66608;DHT22;53462;39.616;8.824;2023-02-01T04:41:16;3.90;99.90
66608;DHT22;53462;39.616;8.824;2023-02-01T04:43:49;3.90;99.90
66608;DHT22;53462;39.616;8.824;2023-02-01T04:46:15;4.00;99.90
66608;DHT22;53462;39.616;8.824;2023-02-01T04:48:42;4.00;99.90
66608;DHT22;53462;39.616;8.824;2023-02-01T04:51:08;4.10;99.90
66608;DHT22;53462;39.616;8.824;2023-02-01T04:53:34;4.00;99.90
66608;DHT22;53462;39.616;8.824;2023-02-01T04:56:00;3.90;99.90
66608;DHT22;53462;39.616;8.824;2023-02-01T04:58:25;3.60;99.90
66608;DHT22;53462;39.616;8.824;2023-02-01T05:00:51;3.50;99.90
66608;DHT22;53462;39.616;8.824;2023-02-01T05:03:18;3.60;99.90
66608;DHT22;53462;39.616;8.824;2023-02-01T05:05:43;3.60;99.90
66608;DHT22;53462;39.616;8.824;2023-02-01T05:08:09;3.70;99.90
66608;DHT22;53462;39.616;8.824;2023-02-01T05:10:35;3.70;99.90
66608;DHT22;53462;39.616;8.824;2023-02-01T05:13:01;3.70;99.90
66608;DHT22;53462;39.616;8.824;2023-02-01T05:15:45;3.60;99.90
66608;DHT22;53462;39.616;8.824;2023-02-01T05:18:12;3.50;99.90
66608;DHT22;53462;39.616;8.824;2023-02-01T05:20:38;3.40;99.90
66608;DHT22;53462;39.616;8.824;2023-02-01T05:23:04;3.30;99.90
66608;DHT22;53462;39.616;8.824;2023-02-01T05:25:31;3.40;99.90
66608;DHT22;53462;39.616;8.824;2023-02-01T05:27:57;3.50;99.90
66608;DHT22;53462;39.616;8.824;2023-02-01T05:30:23;3.50;99.90
66608;DHT22;53462;39.616;8.824;2023-02-01T05:32:52;3.40;99.90
66608;DHT22;53462;39.616;8.824;2023-02-01T05:35:19;3.30;99.90
66608;DHT22;53462;39.616;8.824;2023-02-01T05:37:45;3.40;99.90
66608;DHT22;53462;39.616;8.824;2023-02-01T05:40:11;3.30;99.90
66608;DHT22;53462;39.616;8.824;2023-02-01T05:42:37;3.30;99.90
66608;DHT22;53462;39.616;8.824;2023-02-01T05:45:04;3.30;99.90
66608;DHT22;53462;39.616;8.824;2023-02-01T05:47:31;3.30;99.90
66608;DHT22;53462;39.616;8.824;2023-02-01T05:49:57;3.20;99.90
66608;DHT22;53462;39.616;8.824;2023-02-01T05:52:23;3.40;99.90
66608;DHT22;53462;39.616;8.824;2023-02-01T05:54:49;3.40;99.90
66608;DHT22;53462;39.616;8.824;2023-02-01T05:57:15;3.30;99.90
66608;DHT22;53462;39.616;8.824;2023-02-01T05:59:41;3.50;99.90
66608;DHT22;53462;39.616;8.824;2023-02-01T06:02:11;3.40;99.90
66608;DHT22;53462;39.616;8.824;2023-02-01T06:04:37;3.30;99.90
66608;DHT22;53462;39.616;8.824;2023-02-01T06:07:04;3.30;99.90
66608;DHT22;53462;39.616;8.824;2023-02-01T06:09:30;3.20;99.90
66608;DHT22;53462;39.616;8.824;2023-02-01T06:11:56;3.30;99.90
66608;DHT22;53462;39.616;8.824;2023-02-01T06:14:21;3.50;99.90
66608;DHT22;53462;39.616;8.824;2023-02-01T06:16:47;3.70;99.90
66608;DHT22;53462;39.616;8.824;2023-02-01T06:19:13;3.90;99.90
66608;DHT22;53462;39.616;8.824;2023-02-01T06:21:39;3.80;99.90
66608;DHT22;53462;39.616;8.824;2023-02-01T06:24:05;3.60;99.90
66608;DHT22;53462;39.616;8.824;2023-02-01T06:26:31;3.70;99.90
66608;DHT22;53462;39.616;8.824;2023-02-01T06:28:57;3.80;99.90
66608;DHT22;53462;39.616;8.824;2023-02-01T06:31:23;4.20;99.90
66608;DHT22;53462;39.616;8.824;2023-02-01T06:33:51;4.40;99.90
66608;DHT22;53462;39.616;8.824;2023-02-01T06:36:17;4.60;99.90
66608;DHT22;53462;39.616;8.824;2023-02-01T06:38:46;4.60;99.90
66608;DHT22;53462;39.616;8.824;2023-02-01T06:41:12;4.10;99.90
66608;DHT22;53462;39.616;8.824;2023-02-01T06:43:38;3.80;99.90
66608;DHT22;53462;39.616;8.824;2023-02-01T06:46:08;3.60;99.90
66608;DHT22;53462;39.616;8.824;2023-02-01T06:48:35;3.60;99.90
66608;DHT22;53462;39.616;8.824;2023-02-01T06:51:01;3.70;99.90
66608;DHT22;53462;39.616;8.824;2023-02-01T06:53:27;4.00;99.90
66608;DHT22;53462;39.616;8.824;2023-02-01T06:56:00;3.80;99.90
66608;DHT22;53462;39.616;8.824;2023-02-01T06:58:33;3.90;99.90
66608;DHT22;53462;39.616;8.824;2023-02-01T07:01:06;4.10;99.90
66608;DHT22;53462;39.616;8.824;2023-02-01T07:03:32;4.20;99.90
66608;DHT22;53462;39.616;8.824;2023-02-01T07:05:58;4.20;99.90
66608;DHT22;53462;39.616;8.824;2023-02-01T07:08:26;4.10;99.90
66608;DHT22;53462;39.616;8.824;2023-02-01T07:10:52;4.20;99.90
66608;DHT22;53462;39.616;8.824;2023-02-01T07:13:18;4.10;99.90
66608;DHT22;53462;39.616;8.824;2023-02-01T07:15:44;4.20;99.90
66608;DHT22;53462;39.616;8.824;2023-02-01T07:18:14;4.30;99.90
66608;DHT22;53462;39.616;8.824;2023-02-01T07:20:40;4.50;99.90
66608;DHT22;53462;39.616;8.824;2023-02-01T07:23:07;4.40;99.90
66608;DHT22;53462;39.616;8.824;2023-02-01T07:25:35;4.70;99.90
66608;DHT22;53462;39.616;8.824;2023-02-01T07:28:01;5.00;99.90
66608;DHT22;53462;39.616;8.824;2023-02-01T07:30:27;5.20;99.90
66608;DHT22;53462;39.616;8.824;2023-02-01T07:32:53;5.30;99.90
66608;DHT22;53462;39.616;8.824;2023-02-01T07:35:18;5.40;99.90
66608;DHT22;53462;39.616;8.824;2023-02-01T07:37:44;5.80;99.90
66608;DHT22;53462;39.616;8.824;2023-02-01T07:40:11;6.50;99.90
66608;DHT22;53462;39.616;8.824;2023-02-01T07:42:37;7.60;99.90
66608;DHT22;53462;39.616;8.824;2023-02-01T07:45:03;8.50;99.90
66608;DHT22;53462;39.616;8.824;2023-02-01T07:47:29;8.50;99.90
66608;DHT22;53462;39.616;8.824;2023-02-01T07:49:55;7.80;99.90
66608;DHT22;53462;39.616;8.824;2023-02-01T07:52:21;8.10;99.90
66608;DHT22;53462;39.616;8.824;2023-02-01T07:54:47;8.80;99.90
66608;DHT22;53462;39.616;8.824;2023-02-01T07:57:13;10.40;99.90
66608;DHT22;53462;39.616;8.824;2023-02-01T07:59:39;11.40;99.80
66608;DHT22;53462;39.616;8.824;2023-02-01T08:02:25;12.50;95.50
66608;DHT22;53462;39.616;8.824;2023-02-01T08:04:50;14.00;89.00
66608;DHT22;53462;39.616;8.824;2023-02-01T08:07:16;13.90;84.50
66608;DHT22;53462;39.616;8.824;2023-02-01T08:09:42;15.80;77.00
66608;DHT22;53462;39.616;8.824;2023-02-01T08:12:08;16.60;65.60
66608;DHT22;53462;39.616;8.824;2023-02-01T08:14:34;17.10;62.70
66608;DHT22;53462;39.616;8.824;2023-02-01T08:17:00;17.40;59.90
66608;DHT22;53462;39.616;8.824;2023-02-01T08:19:26;16.70;62.40
66608;DHT22;53462;39.616;8.824;2023-02-01T08:21:52;17.80;58.90
66608;DHT22;53462;39.616;8.824;2023-02-01T08:24:17;18.30;56.90
66608;DHT22;53462;39.616;8.824;2023-02-01T08:26:43;18.90;53.80
66608;DHT22;53462;39.616;8.824;2023-02-01T08:29:09;18.40;53.30
66608;DHT22;53462;39.616;8.824;2023-02-01T08:31:41;18.90;54.00
66608;DHT22;53462;39.616;8.824;2023-02-01T08:34:08;19.40;51.70
66608;DHT22;53462;39.616;8.824;2023-02-01T08:36:35;20.20;49.40
66608;DHT22;53462;39.616;8.824;2023-02-01T08:39:01;20.40;47.90
66608;DHT22;53462;39.616;8.824;2023-02-01T08:41:31;20.50;47.90
66608;DHT22;53462;39.616;8.824;2023-02-01T08:43:57;20.30;49.20
66608;DHT22;53462;39.616;8.824;2023-02-01T08:46:23;20.40;49.00
66608;DHT22;53462;39.616;8.824;2023-02-01T08:48:49;21.50;47.50
66608;DHT22;53462;39.616;8.824;2023-02-01T08:51:17;21.30;46.60
66608;DHT22;53462;39.616;8.824;2023-02-01T08:53:44;21.70;43.80
66608;DHT22;53462;39.616;8.824;2023-02-01T08:56:12;21.20;45.30
66608;DHT22;53462;39.616;8.824;2023-02-01T08:58:38;21.60;44.80
66608;DHT22;53462;39.616;8.824;2023-02-01T09:01:06;22.60;43.60
66608;DHT22;53462;39.616;8.824;2023-02-01T09:03:33;23.20;40.90
66608;DHT22;53462;39.616;8.824;2023-02-01T09:06:17;22.40;42.70
66608;DHT22;53462;39.616;8.824;2023-02-01T09:08:43;22.80;41.70
66608;DHT22;53462;39.616;8.824;2023-02-01T09:11:17;22.10;41.10
66608;DHT22;53462;39.616;8.824;2023-02-01T09:13:46;22.10;42.60
66608;DHT22;53462;39.616;8.824;2023-02-01T09:16:13;22.20;40.90
66608;DHT22;53462;39.616;8.824;2023-02-01T09:18:39;22.80;40.30
66608;DHT22;53462;39.616;8.824;2023-02-01T09:21:06;22.40;40.40
66608;DHT22;53462;39.616;8.824;2023-02-01T09:23:33;22.60;39.60
66608;DHT22;53462;39.616;8.824;2023-02-01T09:26:03;22.90;38.10
66608;DHT22;53462;39.616;8.824;2023-02-01T09:28:32;23.20;38.50
66608;DHT22;53462;39.616;8.824;2023-02-01T09:30:59;22.90;39.10
66608;DHT22;53462;39.616;8.824;2023-02-01T09:33:26;23.40;37.50
66608;DHT22;53462;39.616;8.824;2023-02-01T09:36:00;23.30;39.00
66608;DHT22;53462;39.616;8.824;2023-02-01T09:38:27;23.90;38.10
66608;DHT22;53462;39.616;8.824;2023-02-01T09:40:53;22.70;39.80
66608;DHT22;53462;39.616;8.824;2023-02-01T09:48:48;23.40;37.40
66608;DHT22;53462;39.616;8.824;2023-02-01T09:51:19;21.50;39.90
66608;DHT22;53462;39.616;8.824;2023-02-01T09:54:21;19.60;45.80
66608;DHT22;53462;39.616;8.824;2023-02-01T09:57:14;19.80;44.70
66608;DHT22;53462;39.616;8.824;2023-02-01T09:59:57;21.20;43.20
66608;DHT22;53462;39.616;8.824;2023-02-01T10:02:27;24.70;41.10
66608;DHT22;53462;39.616;8.824;2023-02-01T10:04:55;24.60;40.40
66608;DHT22;53462;39.616;8.824;2023-02-01T10:31:43;26.20;37.50
66608;DHT22;53462;39.616;8.824;2023-02-01T10:34:22;25.80;36.30
66608;DHT22;53462;39.616;8.824;2023-02-01T10:36:56;26.00;35.20
66608;DHT22;53462;39.616;8.824;2023-02-01T10:39:23;25.50;37.10
66608;DHT22;53462;39.616;8.824;2023-02-01T10:41:49;25.50;36.10
66608;DHT22;53462;39.616;8.824;2023-02-01T10:44:26;24.60;37.40
66608;DHT22;53462;39.616;8.824;2023-02-01T10:46:52;26.20;36.90
66608;DHT22;53462;39.616;8.824;2023-02-01T10:49:26;22.70;39.40
66608;DHT22;53462;39.616;8.824;2023-02-01T10:52:00;19.60;46.20
66608;DHT22;53462;39.616;8.824;2023-02-01T10:54:36;19.20;49.30
66608;DHT22;53462;39.616;8.824;2023-02-01T10:57:17;19.90;47.70
66608;DHT22;53462;39.616;8.824;2023-02-01T10:59:44;19.50;49.50
66608;DHT22;53462;39.616;8.824;2023-02-01T11:04:43;19.60;49.50
66608;DHT22;53462;39.616;8.824;2023-02-01T11:07:22;19.20;49.00
66608;DHT22;53462;39.616;8.824;2023-02-01T11:09:54;19.00;49.70
66608;DHT22;53462;39.616;8.824;2023-02-01T11:12:37;18.70;50.40
66608;DHT22;53462;39.616;8.824;2023-02-01T11:15:19;18.20;52.10
66608;DHT22;53462;39.616;8.824;2023-02-01T11:17:48;17.90;53.60
66608;DHT22;53462;39.616;8.824;2023-02-01T11:20:35;18.00;54.50
66608;DHT22;53462;39.616;8.824;2023-02-01T11:23:03;17.90;53.20
66608;DHT22;53462;39.616;8.824;2023-02-01T11:25:32;17.30;53.20
66608;DHT22;53462;39.616;8.824;2023-02-01T11:28:01;17.40;54.90
66608;DHT22;53462;39.616;8.824;2023-02-01T11:30:37;17.20;55.10
66608;DHT22;53462;39.616;8.824;2023-02-01T11:33:05;17.10;54.60
66608;DHT22;53462;39.616;8.824;2023-02-01T11:35:32;16.90;56.00
66608;DHT22;53462;39.616;8.824;2023-02-01T11:37:59;17.30;56.80
66608;DHT22;53462;39.616;8.824;2023-02-01T11:40:34;17.40;56.60
66608;DHT22;53462;39.616;8.824;2023-02-01T11:43:11;18.20;54.80
66608;DHT22;53462;39.616;8.824;2023-02-01T11:45:39;18.40;53.40
66608;DHT22;53462;39.616;8.824;2023-02-01T11:48:13;18.20;51.60
66608;DHT22;53462;39.616;8.824;2023-02-01T11:50:59;18.00;54.50
66608;DHT22;53462;39.616;8.824;2023-02-01T11:56:37;17.90;54.10
66608;DHT22;53462;39.616;8.824;2023-02-01T12:23:14;17.00;50.90
66608;DHT22;53462;39.616;8.824;2023-02-01T12:28:43;16.30;54.40
66608;DHT22;53462;39.616;8.824;2023-02-01T12:31:18;16.20;56.30
66608;DHT22;53462;39.616;8.824;2023-02-01T12:47:28;15.80;55.30
66608;DHT22;53462;39.616;8.824;2023-02-01T12:50:00;15.80;56.50
66608;DHT22;53462;39.616;8.824;2023-02-01T12:52:40;15.80;57.20
66608;DHT22;53462;39.616;8.824;2023-02-01T12:57:46;15.90;56.50
66608;DHT22;53462;39.616;8.824;2023-02-01T13:00:31;16.10;55.40
66608;DHT22;53462;39.616;8.824;2023-02-01T13:05:43;16.70;54.20
66608;DHT22;53462;39.616;8.824;2023-02-01T13:08:13;16.80;53.50
66608;DHT22;53462;39.616;8.824;2023-02-01T13:10:46;16.70;53.50
66608;DHT22;53462;39.616;8.824;2023-02-01T13:14:17;16.20;53.80
66608;DHT22;53462;39.616;8.824;2023-02-01T13:16:28;16.00;55.20
66608;DHT22;53462;39.616;8.824;2023-02-01T13:19:24;16.00;55.90
66608;DHT22;53462;39.616;8.824;2023-02-01T13:21:56;16.10;56.40
66608;DHT22;53462;39.616;8.824;2023-02-01T13:24:40;15.90;56.80
66608;DHT22;53462;39.616;8.824;2023-02-01T13:27:14;15.80;58.90
66608;DHT22;53462;39.616;8.824;2023-02-01T13:35:39;15.50;61.70
66608;DHT22;53462;39.616;8.824;2023-02-01T13:38:33;15.30;63.10
66608;DHT22;53462;39.616;8.824;2023-02-01T13:43:49;14.80;65.90
66608;DHT22;53462;39.616;8.824;2023-02-01T13:46:16;14.70;65.20
66608;DHT22;53462;39.616;8.824;2023-02-01T13:48:47;14.80;66.70
66608;DHT22;53462;39.616;8.824;2023-02-01T13:51:14;14.70;67.10
66608;DHT22;53462;39.616;8.824;2023-02-01T13:53:46;14.70;67.30
66608;DHT22;53462;39.616;8.824;2023-02-01T13:56:18;14.60;68.10
66608;DHT22;53462;39.616;8.824;2023-02-01T13:58:46;14.70;67.90
66608;DHT22;53462;39.616;8.824;2023-02-01T14:09:17;14.30;72.30
66608;DHT22;53462;39.616;8.824;2023-02-01T14:11:50;14.30;71.90
66608;DHT22;53462;39.616;8.824;2023-02-01T14:19:26;14.40;71.50
66608;DHT22;53462;39.616;8.824;2023-02-01T14:21:55;14.40;72.00
66608;DHT22;53462;39.616;8.824;2023-02-01T14:24:29;14.60;72.00
66608;DHT22;53462;39.616;8.824;2023-02-01T14:26:57;14.70;72.20
66608;DHT22;53462;39.616;8.824;2023-02-01T14:29:44;14.50;72.70
66608;DHT22;53462;39.616;8.824;2023-02-01T14:32:21;14.50;73.60
66608;DHT22;53462;39.616;8.824;2023-02-01T14:42:50;15.00;71.40
66608;DHT22;53462;39.616;8.824;2023-02-01T14:57:57;15.20;72.20
66608;DHT22;53462;39.616;8.824;2023-02-01T15:00:28;15.20;71.40
66608;DHT22;53462;39.616;8.824;2023-02-01T15:03:12;14.80;72.80
66608;DHT22;53462;39.616;8.824;2023-02-01T15:05:41;14.40;73.90
66608;DHT22;53462;39.616;8.824;2023-02-01T15:08:16;13.90;76.70
66608;DHT22;53462;39.616;8.824;2023-02-01T15:10:46;13.60;77.40
66608;DHT22;53462;39.616;8.824;2023-02-01T15:13:22;13.40;79.70
66608;DHT22;53462;39.616;8.824;2023-02-01T15:16:11;13.40;79.60
66608;DHT22;53462;39.616;8.824;2023-02-01T15:18:38;13.30;80.00
66608;DHT22;53462;39.616;8.824;2023-02-01T15:21:05;13.30;80.40
66608;DHT22;53462;39.616;8.824;2023-02-01T15:23:32;13.30;79.30
66608;DHT22;53462;39.616;8.824;2023-02-01T15:25:58;13.30;78.70
66608;DHT22;53462;39.616;8.824;2023-02-01T15:28:26;13.20;79.50
66608;DHT22;53462;39.616;8.824;2023-02-01T15:33:22;13.00;82.00
66608;DHT22;53462;39.616;8.824;2023-02-01T15:35:49;12.80;83.40
66608;DHT22;53462;39.616;8.824;2023-02-01T15:43:19;12.60;86.70
66608;DHT22;53462;39.616;8.824;2023-02-01T15:45:46;12.50;86.10
66608;DHT22;53462;39.616;8.824;2023-02-01T15:48:17;12.40;87.00
66608;DHT22;53462;39.616;8.824;2023-02-01T15:50:45;12.50;85.40
66608;DHT22;53462;39.616;8.824;2023-02-01T15:53:19;12.40;85.40
66608;DHT22;53462;39.616;8.824;2023-02-01T15:55:46;12.40;85.70
66608;DHT22;53462;39.616;8.824;2023-02-01T15:58:21;12.30;86.20
66608;DHT22;53462;39.616;8.824;2023-02-01T16:00:50;12.50;85.10
66608;DHT22;53462;39.616;8.824;2023-02-01T16:03:28;12.40;85.20
66608;DHT22;53462;39.616;8.824;2023-02-01T16:06:01;12.40;86.30
66608;DHT22;53462;39.616;8.824;2023-02-01T16:08:29;12.30;86.70
66608;DHT22;53462;39.616;8.824;2023-02-01T16:11:01;12.20;87.00
66608;DHT22;53462;39.616;8.824;2023-02-01T16:13:39;12.20;87.90
66608;DHT22;53462;39.616;8.824;2023-02-01T16:16:08;12.00;89.10
66608;DHT22;53462;39.616;8.824;2023-02-01T16:18:42;12.10;89.20
66608;DHT22;53462;39.616;8.824;2023-02-01T16:21:09;12.00;89.80
66608;DHT22;53462;39.616;8.824;2023-02-01T16:23:35;12.00;89.90
66608;DHT22;53462;39.616;8.824;2023-02-01T16:26:03;12.00;90.10
66608;DHT22;53462;39.616;8.824;2023-02-01T16:28:29;12.00;90.40
66608;DHT22;53462;39.616;8.824;2023-02-01T16:30:55;11.90;90.70
66608;DHT22;53462;39.616;8.824;2023-02-01T16:33:22;11.90;91.10
66608;DHT22;53462;39.616;8.824;2023-02-01T16:35:48;11.90;91.30
66608;DHT22;53462;39.616;8.824;2023-02-01T16:38:17;11.80;91.50
66608;DHT22;53462;39.616;8.824;2023-02-01T16:40:46;11.70;91.70
66608;DHT22;53462;39.616;8.824;2023-02-01T16:45:44;11.80;92.20
66608;DHT22;53462;39.616;8.824;2023-02-01T16:48:20;11.70;92.20
66608;DHT22;53462;39.616;8.824;2023-02-01T16:50:50;11.70;92.50
66608;DHT22;53462;39.616;8.824;2023-02-01T16:53:18;11.60;92.70
66608;DHT22;53462;39.616;8.824;2023-02-01T16:55:44;11.50;93.30
66608;DHT22;53462;39.616;8.824;2023-02-01T16:58:12;11.50;93.60
66608;DHT22;53462;39.616;8.824;2023-02-01T17:00:38;11.50;93.70
66608;DHT22;53462;39.616;8.824;2023-02-01T17:03:04;11.50;94.00
66608;DHT22;53462;39.616;8.824;2023-02-01T17:05:34;11.40;94.10
66608;DHT22;53462;39.616;8.824;2023-02-01T17:08:03;11.30;94.40
66608;DHT22;53462;39.616;8.824;2023-02-01T17:10:30;11.20;94.60
66608;DHT22;53462;39.616;8.824;2023-02-01T17:12:56;11.00;95.10
66608;DHT22;53462;39.616;8.824;2023-02-01T17:15:27;11.20;95.50
66608;DHT22;53462;39.616;8.824;2023-02-01T17:17:55;11.20;95.50
66608;DHT22;53462;39.616;8.824;2023-02-01T17:20:24;11.20;96.10
66608;DHT22;53462;39.616;8.824;2023-02-01T17:22:51;11.10;95.90
66608;DHT22;53462;39.616;8.824;2023-02-01T17:25:19;11.10;96.30
66608;DHT22;53462;39.616;8.824;2023-02-01T17:27:47;11.00;96.50
66608;DHT22;53462;39.616;8.824;2023-02-01T17:30:14;11.10;97.10
66608;DHT22;53462;39.616;8.824;2023-02-01T17:32:41;11.10;97.00
66608;DHT22;53462;39.616;8.824;2023-02-01T17:35:26;11.10;96.80
66608;DHT22;53462;39.616;8.824;2023-02-01T17:37:52;11.20;96.40
66608;DHT22;53462;39.616;8.824;2023-02-01T17:40:19;11.20;96.30
66608;DHT22;53462;39.616;8.824;2023-02-01T17:42:45;11.10;96.00
66608;DHT22;53462;39.616;8.824;2023-02-01T17:48:03;11.00;97.30
66608;DHT22;53462;39.616;8.824;2023-02-01T17:50:30;11.00;97.30
66608;DHT22;53462;39.616;8.824;2023-02-01T17:52:57;10.90;97.80
66608;DHT22;53462;39.616;8.824;2023-02-01T17:55:24;10.80;98.20
66608;DHT22;53462;39.616;8.824;2023-02-01T17:57:51;10.80;98.70
66608;DHT22;53462;39.616;8.824;2023-02-01T18:00:18;10.80;99.20
66608;DHT22;53462;39.616;8.824;2023-02-01T18:02:44;10.80;99.30
66608;DHT22;53462;39.616;8.824;2023-02-01T18:05:19;10.80;99.80
66608;DHT22;53462;39.616;8.824;2023-02-01T18:07:46;10.70;99.90
66608;DHT22;53462;39.616;8.824;2023-02-01T18:10:12;10.80;99.90
66608;DHT22;53462;39.616;8.824;2023-02-01T18:12:39;10.70;99.90
66608;DHT22;53462;39.616;8.824;2023-02-01T18:15:19;10.70;99.90
66608;DHT22;53462;39.616;8.824;2023-02-01T18:17:46;10.70;99.90
66608;DHT22;53462;39.616;8.824;2023-02-01T18:20:16;10.70;99.90
66608;DHT22;53462;39.616;8.824;2023-02-01T18:22:43;10.70;99.90
66608;DHT22;53462;39.616;8.824;2023-02-01T18:25:25;10.60;99.90
66608;DHT22;53462;39.616;8.824;2023-02-01T18:27:52;10.60;99.90
66608;DHT22;53462;39.616;8.824;2023-02-01T18:30:21;10.60;99.90
66608;DHT22;53462;39.616;8.824;2023-02-01T18:32:47;10.60;99.90
66608;DHT22;53462;39.616;8.824;2023-02-01T18:35:30;10.60;99.90
66608;DHT22;53462;39.616;8.824;2023-02-01T18:37:57;10.60;99.90
66608;DHT22;53462;39.616;8.824;2023-02-01T18:40:27;10.60;99.90
66608;DHT22;53462;39.616;8.824;2023-02-01T18:42:54;10.60;99.90
66608;DHT22;53462;39.616;8.824;2023-02-01T18:45:38;10.60;99.90
66608;DHT22;53462;39.616;8.824;2023-02-01T18:48:06;10.60;99.90
66608;DHT22;53462;39.616;8.824;2023-02-01T18:50:34;10.50;99.90